Time;durP1;ratioP1;P1;durP2;ratioP2;P2;SDS_P1;SDS_P2;PMS_P1;PMS_P2;Temp;Humidity;BMP_temperature;BMP_pressure;BME280_temperature;BME280_humidity;BME280_pressure;Samples;Min_cycle;Max_cycle;Signal;HPM_P1;HPM_P2
2022/06/16 00:00:09;;;;;;;8.82;4.90;;;13.70;99.90;;;;;;5039313;28;20128;-74
2022/06/16 00:02:40;;;;;;;8.93;5.47;;;13.70;99.90;;;;;;5056868;28;20053;-75
2022/06/16 00:05:09;;;;;;;8.13;5.43;;;13.70;99.90;;;;;;5057160;28;20450;-75
2022/06/16 00:07:38;;;;;;;8.05;5.40;;;13.70;99.90;;;;;;5057047;28;20041;-75
2022/06/16 00:10:06;;;;;;;9.45;5.80;;;13.60;99.90;;;;;;5056990;28;20095;-75
2022/06/16 00:12:34;;;;;;;8.90;5.20;;;13.60;99.90;;;;;;5055951;28;20119;-74
2022/06/16 00:15:01;;;;;;;6.93;5.03;;;13.60;99.90;;;;;;5040434;28;20056;-74
2022/06/16 00:17:29;;;;;;;7.45;4.68;;;13.50;99.90;;;;;;5060927;28;20044;-75
2022/06/16 00:19:56;;;;;;;7.80;4.55;;;13.50;99.90;;;;;;5080185;28;20072;-75
2022/06/16 00:22:23;;;;;;;7.88;4.50;;;13.40;99.90;;;;;;5075947;28;20098;-75
2022/06/16 00:24:52;;;;;;;6.95;5.38;;;13.40;99.90;;;;;;5076840;28;20052;-74
2022/06/16 00:27:19;;;;;;;11.57;4.70;;;13.30;99.90;;;;;;5076644;28;20041;-75
2022/06/16 00:29:47;;;;;;;8.90;5.07;;;13.30;99.90;;;;;;5058988;28;20066;-73
2022/06/16 00:32:14;;;;;;;8.63;4.60;;;13.30;99.90;;;;;;5070613;28;20093;-74
2022/06/16 00:34:41;;;;;;;8.48;4.70;;;13.30;99.90;;;;;;5067263;28;20048;-73
2022/06/16 00:37:09;;;;;;;9.80;4.90;;;13.30;99.90;;;;;;5083700;28;20048;-75
2022/06/16 00:39:36;;;;;;;8.30;5.00;;;13.30;99.90;;;;;;5078339;28;20063;-75
2022/06/16 00:42:17;;;;;;;10.32;4.93;;;13.30;99.90;;;;;;5076425;28;20114;-76
2022/06/16 00:44:46;;;;;;;7.88;4.85;;;13.30;99.90;;;;;;5075252;28;20074;-74
2022/06/16 00:47:14;;;;;;;7.05;4.82;;;13.20;99.90;;;;;;5074270;28;20083;-75
2022/06/16 00:49:44;;;;;;;9.70;4.88;;;13.20;99.90;;;;;;5054643;28;20056;-76
2022/06/16 00:52:15;;;;;;;13.88;4.57;;;13.20;99.90;;;;;;5054514;28;20550;-73
2022/06/16 00:54:47;;;;;;;9.07;4.70;;;13.20;99.90;;;;;;5055722;28;20049;-75
2022/06/16 00:57:21;;;;;;;7.15;4.53;;;13.20;99.90;;;;;;5056252;28;20049;-75
2022/06/16 00:59:48;;;;;;;11.40;4.80;;;13.20;99.90;;;;;;5055258;28;20044;-75
2022/06/16 01:02:16;;;;;;;8.93;4.65;;;13.10;99.90;;;;;;5053170;28;20049;-75
2022/06/16 01:04:52;;;;;;;8.23;4.57;;;13.10;99.90;;;;;;5046251;28;20136;-75
2022/06/16 01:07:23;;;;;;;9.07;4.63;;;13.10;99.90;;;;;;5052396;28;20038;-76
2022/06/16 01:09:54;;;;;;;10.60;5.18;;;13.00;99.90;;;;;;5043616;28;20275;-75
2022/06/16 01:15:59;;;;;;;6.20;4.53;;;13.00;99.90;;;;;;5039830;28;20041;-75
2022/06/16 01:18:33;;;;;;;9.65;4.60;;;12.90;99.90;;;;;;5054841;28;20115;-75
2022/06/16 01:21:07;;;;;;;10.73;5.28;;;12.90;99.90;;;;;;5054353;28;20057;-75
2022/06/16 01:24:04;;;;;;;7.55;4.60;;;12.90;99.90;;;;;;5053586;28;20085;-75
2022/06/16 01:27:30;;;;;;;6.55;4.63;;;12.80;99.90;;;;;;5053719;28;20423;-75
2022/06/16 01:30:05;;;;;;;10.38;4.57;;;12.80;99.90;;;;;;5053926;28;20040;-75
2022/06/16 01:32:43;;;;;;;13.35;5.50;;;12.80;99.90;;;;;;5054535;28;20075;-75
2022/06/16 01:35:20;;;;;;;8.07;4.68;;;12.80;99.90;;;;;;5058547;28;20048;-76
2022/06/16 01:37:58;;;;;;;6.78;5.20;;;12.80;99.90;;;;;;5056258;28;20071;-76
2022/06/16 01:40:30;;;;;;;6.68;5.20;;;12.70;99.90;;;;;;5047930;28;20055;-75
2022/06/16 01:43:06;;;;;;;14.27;6.60;;;12.70;99.90;;;;;;5064783;28;20050;-75
2022/06/16 01:45:44;;;;;;;7.65;4.43;;;12.60;99.90;;;;;;5054266;28;20049;-75
2022/06/16 01:48:18;;;;;;;7.60;4.55;;;12.60;99.90;;;;;;5048374;28;20525;-75
2022/06/16 01:50:52;;;;;;;6.72;4.80;;;12.50;99.90;;;;;;5059667;28;20071;-74
2022/06/16 01:53:23;;;;;;;7.78;5.40;;;12.50;99.90;;;;;;5059816;28;20075;-75
2022/06/16 01:55:55;;;;;;;6.60;4.88;;;12.50;99.90;;;;;;5061065;28;20415;-74
2022/06/16 01:58:26;;;;;;;7.57;5.07;;;12.50;99.90;;;;;;5058289;28;20073;-75
2022/06/16 02:00:59;;;;;;;6.82;5.05;;;12.50;99.90;;;;;;5041698;28;20441;-75
2022/06/16 02:03:36;;;;;;;7.60;4.75;;;12.40;99.90;;;;;;5040530;28;20056;-75
2022/06/16 02:06:09;;;;;;;6.88;4.70;;;12.40;99.90;;;;;;5039936;28;20045;-75
2022/06/16 02:08:41;;;;;;;8.00;4.53;;;12.40;99.90;;;;;;5047980;28;20075;-75
2022/06/16 02:11:14;;;;;;;8.27;4.70;;;12.30;99.90;;;;;;5053378;28;20097;-74
2022/06/16 02:13:49;;;;;;;8.40;4.50;;;12.30;99.90;;;;;;5075746;28;20051;-75
2022/06/16 02:16:22;;;;;;;9.30;5.20;;;12.30;99.90;;;;;;5058875;28;20058;-75
2022/06/16 02:18:52;;;;;;;6.68;4.53;;;12.20;99.90;;;;;;5057970;28;20053;-76
2022/06/16 02:21:24;;;;;;;9.23;5.68;;;12.20;99.90;;;;;;5058706;28;20052;-75
2022/06/16 02:23:52;;;;;;;9.02;5.20;;;12.20;99.90;;;;;;5076300;28;20115;-74
2022/06/16 02:26:20;;;;;;;8.50;5.00;;;12.10;99.90;;;;;;5075706;28;20147;-75
2022/06/16 02:28:49;;;;;;;7.65;4.78;;;12.10;99.90;;;;;;5057771;28;20523;-74
2022/06/16 02:31:42;;;;;;;7.60;5.25;;;12.00;99.90;;;;;;5057526;28;20059;-75
2022/06/16 02:34:17;;;;;;;8.73;5.35;;;12.00;99.90;;;;;;5072289;28;20063;-76
2022/06/16 02:37:00;;;;;;;8.95;5.72;;;12.10;99.90;;;;;;5057722;28;20148;-75
2022/06/16 02:39:43;;;;;;;8.02;5.13;;;12.10;99.90;;;;;;5054249;28;20091;-75
2022/06/16 02:42:19;;;;;;;12.35;5.45;;;12.10;99.90;;;;;;5054282;28;20052;-75
2022/06/16 02:44:58;;;;;;;8.02;5.45;;;12.00;99.90;;;;;;5055732;28;20052;-75
2022/06/16 02:47:48;;;;;;;9.13;4.88;;;12.00;99.90;;;;;;5056587;28;20056;-74
2022/06/16 02:50:30;;;;;;;8.68;5.20;;;12.00;99.90;;;;;;5069533;23;20462;-77
2022/06/16 02:53:06;;;;;;;7.10;4.90;;;12.00;99.90;;;;;;5047461;28;20060;-77
2022/06/16 02:55:39;;;;;;;8.65;4.47;;;11.90;99.90;;;;;;5044689;28;20087;-76
2022/06/16 02:58:10;;;;;;;7.43;4.90;;;11.90;99.90;;;;;;5052274;28;20076;-77
2022/06/16 03:00:50;;;;;;;9.07;4.90;;;11.90;99.90;;;;;;5052331;28;20053;-77
2022/06/16 03:03:21;;;;;;;9.35;5.13;;;11.80;99.90;;;;;;5068436;28;20041;-77
2022/06/16 03:05:59;;;;;;;8.00;5.00;;;11.90;99.90;;;;;;5052524;28;20060;-77
2022/06/16 03:08:28;;;;;;;10.13;4.53;;;11.90;99.90;;;;;;5050992;28;20427;-76
2022/06/16 03:11:01;;;;;;;8.10;4.90;;;11.90;99.90;;;;;;5032045;28;20048;-76
2022/06/16 03:13:33;;;;;;;9.05;5.00;;;11.90;99.90;;;;;;5032971;28;20136;-77
2022/06/16 03:16:02;;;;;;;6.75;4.60;;;11.90;99.90;;;;;;5035145;28;20046;-77
2022/06/16 03:18:34;;;;;;;8.48;4.90;;;11.90;99.90;;;;;;5034673;28;20057;-76
2022/06/16 03:21:01;;;;;;;10.15;4.90;;;11.90;99.90;;;;;;5039983;28;20118;-77
2022/06/16 03:23:30;;;;;;;8.35;4.55;;;11.90;99.90;;;;;;5054918;28;20041;-77
2022/06/16 03:25:57;;;;;;;10.45;4.97;;;11.80;99.90;;;;;;5056013;28;20159;-77
2022/06/16 03:28:25;;;;;;;8.05;4.63;;;11.90;99.90;;;;;;5047423;28;20053;-76
2022/06/16 03:30:53;;;;;;;9.38;5.05;;;11.90;99.90;;;;;;5056002;28;20049;-75
2022/06/16 03:33:21;;;;;;;8.27;4.50;;;12.00;99.90;;;;;;5055518;28;20040;-74
2022/06/16 03:35:54;;;;;;;7.95;5.22;;;12.10;99.90;;;;;;5052352;28;20049;-76
2022/06/16 03:38:25;;;;;;;5.97;4.40;;;12.00;99.90;;;;;;5036320;28;20057;-78
2022/06/16 03:40:52;;;;;;;7.55;4.60;;;12.20;99.90;;;;;;5036230;28;20088;-77
2022/06/16 03:43:20;;;;;;;6.78;4.60;;;12.20;99.90;;;;;;5036032;28;20045;-77
2022/06/16 03:45:51;;;;;;;7.45;4.75;;;12.30;99.90;;;;;;5055318;28;20462;-77
2022/06/16 03:48:18;;;;;;;8.32;5.53;;;12.40;99.90;;;;;;5056846;28;20438;-76
2022/06/16 03:50:47;;;;;;;8.85;4.47;;;12.50;99.90;;;;;;5076208;28;20047;-76
2022/06/16 03:53:19;;;;;;;9.18;4.75;;;12.80;99.90;;;;;;5078315;28;20049;-75
2022/06/16 03:55:54;;;;;;;7.70;4.63;;;13.30;99.90;;;;;;5079054;28;20127;-77
2022/06/16 03:58:26;;;;;;;8.38;4.75;;;14.40;99.90;;;;;;5077652;28;20044;-76
2022/06/16 04:00:54;;;;;;;8.23;3.83;;;15.60;99.90;;;;;;5092256;28;20475;-77
2022/06/16 04:06:12;;;;;;;7.95;3.63;;;17.10;1.00;;;;;;5075293;28;20045;-76
2022/06/16 04:08:41;;;;;;;11.95;3.53;;;18.00;1.00;;;;;;5095725;28;20388;-75
2022/06/16 04:13:50;;;;;;;6.63;3.33;;;19.30;1.00;;;;;;5070012;28;20055;-76
2022/06/16 04:16:17;;;;;;;4.72;3.00;;;19.60;99.90;;;;;;5075849;28;20052;-76
2022/06/16 04:18:46;;;;;;;7.28;3.72;;;19.90;99.90;;;;;;5092239;28;20059;-77
2022/06/16 04:21:14;;;;;;;11.85;3.35;;;20.40;99.30;;;;;;5075042;28;20063;-76
2022/06/16 04:24:12;;;;;;;7.32;3.15;;;21.00;12.10;;;;;;5075804;28;20052;-75
2022/06/16 04:26:41;;;;;;;12.15;4.30;;;21.50;1.00;;;;;;5074804;28;20052;-76
2022/06/16 04:29:11;;;;;;;23.73;5.07;;;22.00;1.00;;;;;;5075142;28;20575;-77
2022/06/16 04:31:42;;;;;;;6.60;3.10;;;22.20;1.00;;;;;;5074518;28;20143;-76
2022/06/16 04:34:12;;;;;;;8.57;3.03;;;22.70;1.00;;;;;;5073730;28;20074;-77
2022/06/16 04:36:42;;;;;;;5.38;3.30;;;22.80;1.00;;;;;;5075341;28;20047;-76
2022/06/16 04:39:14;;;;;;;20.55;4.15;;;22.90;1.00;;;;;;5072933;28;20059;-77
2022/06/16 04:41:46;;;;;;;6.65;3.60;;;22.40;1.00;;;;;;5074007;28;20564;-77
2022/06/16 04:44:16;;;;;;;7.25;3.45;;;23.00;1.00;;;;;;5065573;28;20048;-76
2022/06/16 04:46:46;;;;;;;6.72;3.20;;;23.20;99.90;;;;;;5090577;28;20498;-75
2022/06/16 04:49:15;;;;;;;8.10;3.55;;;23.40;1.00;;;;;;5066591;28;20136;-76
2022/06/16 04:51:46;;;;;;;7.07;3.60;;;24.00;8.80;;;;;;5070720;28;20060;-77
2022/06/16 04:54:16;;;;;;;9.85;4.05;;;23.80;99.90;;;;;;5053692;28;20060;-77
2022/06/16 04:56:59;;;;;;;8.43;3.25;;;24.50;1.00;;;;;;5054132;28;20049;-76
2022/06/16 04:59:42;;;;;;;22.15;4.95;;;24.60;25.60;;;;;;5052268;28;20049;-76
2022/06/16 05:02:28;;;;;;;13.88;4.10;;;24.70;1.00;;;;;;5054539;28;20052;-76
2022/06/16 05:05:19;;;;;;;10.38;4.32;;;25.00;1.00;;;;;;5036661;28;20100;-77
2022/06/16 05:08:06;;;;;;;12.32;4.03;;;25.50;1.00;;;;;;5031614;28;20058;-77
2022/06/16 05:10:51;;;;;;;10.25;4.65;;;25.60;99.90;;;;;;5034423;28;20041;-77
2022/06/16 05:13:38;;;;;;;13.77;4.50;;;25.40;99.90;;;;;;5042729;28;20052;-73
2022/06/16 05:16:30;;;;;;;12.77;4.50;;;25.60;1.00;;;;;;5054263;28;20041;-72
2022/06/16 05:19:16;;;;;;;9.35;4.40;;;25.10;99.90;;;;;;5054454;28;20068;-72
2022/06/16 05:22:06;;;;;;;11.10;4.03;;;25.20;1.00;;;;;;5050682;28;20049;-72
2022/06/16 05:24:52;;;;;;;8.52;4.40;;;25.80;99.90;;;;;;5043313;28;20060;-73
2022/06/16 05:27:47;;;;;;;7.72;3.65;;;26.50;99.90;;;;;;5028455;28;20057;-74
2022/06/16 05:30:38;;;;;;;9.88;3.80;;;26.60;99.90;;;;;;5048378;28;20528;-72
2022/06/16 05:33:11;;;;;;;8.02;4.20;;;26.80;99.90;;;;;;5059362;28;20065;-72
2022/06/16 05:35:58;;;;;;;8.75;3.67;;;26.80;99.90;;;;;;5035598;28;20176;-72
2022/06/16 05:38:40;;;;;;;9.63;3.42;;;26.60;63.80;;;;;;5064389;28;20049;-73
2022/06/16 05:41:30;;;;;;;7.38;3.88;;;26.80;1.00;;;;;;5033282;28;20056;-73
2022/06/16 05:44:09;;;;;;;9.95;3.83;;;27.10;99.90;;;;;;5042021;28;20114;-73
2022/06/16 05:46:59;;;;;;;7.00;3.00;;;27.30;99.90;;;;;;5042211;28;20107;-73
2022/06/16 05:49:30;;;;;;;8.40;3.00;;;26.90;11.80;;;;;;5032851;28;20528;-73
2022/06/16 05:52:08;;;;;;;6.18;3.20;;;26.80;1.00;;;;;;5033054;28;20048;-72
2022/06/16 05:54:36;;;;;;;6.15;3.35;;;26.50;99.90;;;;;;5051087;28;20046;-73
2022/06/16 05:57:04;;;;;;;6.03;3.70;;;26.10;1.00;;;;;;5033151;28;20453;-72
2022/06/16 05:59:36;;;;;;;7.85;3.88;;;25.80;99.90;;;;;;5033053;28;20042;-72
2022/06/16 06:02:03;;;;;;;10.25;4.72;;;25.70;99.90;;;;;;5033861;28;20046;-73
2022/06/16 06:04:32;;;;;;;10.77;4.20;;;25.50;99.90;;;;;;5032864;28;20062;-73
2022/06/16 06:07:03;;;;;;;11.57;4.38;;;25.10;99.90;;;;;;5033450;28;20037;-73
2022/06/16 06:18:21;;;;;;;10.18;4.68;;;24.20;1.00;;;;;;5052522;28;20041;-73
2022/06/16 06:20:54;;;;;;;8.07;4.15;;;24.00;1.00;;;;;;5052438;28;20140;-73
2022/06/16 06:23:23;;;;;;;8.68;5.30;;;24.20;1.00;;;;;;5051885;28;20163;-79
2022/06/16 06:25:50;;;;;;;9.82;3.50;;;24.20;1.00;;;;;;5053740;28;20048;-73
2022/06/16 06:28:22;;;;;;;10.80;3.97;;;23.90;15.40;;;;;;5054275;28;20087;-72
2022/06/16 06:30:50;;;;;;;9.48;4.18;;;24.10;99.90;;;;;;5054355;28;20107;-71
2022/06/16 06:33:18;;;;;;;7.07;3.80;;;24.50;99.90;;;;;;5055345;28;20099;-72
2022/06/16 06:35:46;;;;;;;12.70;4.43;;;24.70;99.90;;;;;;5060244;28;20056;-73
2022/06/16 06:38:14;;;;;;;8.70;4.18;;;24.70;1.00;;;;;;5059574;28;20135;-73
2022/06/16 06:40:41;;;;;;;6.43;3.15;;;24.70;1.00;;;;;;5069299;28;20120;-72
2022/06/16 06:43:09;;;;;;;14.75;3.60;;;24.90;89.00;;;;;;5053818;28;20049;-74
2022/06/16 06:45:37;;;;;;;8.00;3.85;;;25.20;99.90;;;;;;5053669;28;20048;-74
2022/06/16 06:48:07;;;;;;;6.05;3.92;;;25.10;99.90;;;;;;5069480;28;20484;-72
2022/06/16 06:50:37;;;;;;;7.47;3.90;;;25.20;20.30;;;;;;5078764;28;20042;-73
2022/06/16 06:53:05;;;;;;;9.25;4.53;;;25.00;99.90;;;;;;5066931;28;20384;-73
2022/06/16 06:55:41;;;;;;;7.43;3.90;;;24.70;1.00;;;;;;5074248;28;20094;-72
2022/06/16 06:58:09;;;;;;;12.90;5.32;;;24.30;99.90;;;;;;5070712;28;20048;-76
2022/06/16 07:00:38;;;;;;;9.60;4.85;;;24.60;99.90;;;;;;5061827;28;20064;-74
2022/06/16 07:03:07;;;;;;;10.85;5.10;;;25.00;8.20;;;;;;5072773;28;20056;-73
2022/06/16 07:05:34;;;;;;;4.68;3.28;;;25.30;99.90;;;;;;5052593;28;20440;-72
2022/06/16 07:08:01;;;;;;;8.40;3.80;;;25.40;92.40;;;;;;5050299;28;20064;-74
2022/06/16 07:10:28;;;;;;;8.27;4.75;;;25.60;99.90;;;;;;5063904;28;20045;-73
2022/06/16 07:12:56;;;;;;;9.88;4.18;;;25.80;99.90;;;;;;5072694;28;20052;-72
2022/06/16 07:15:23;;;;;;;9.82;5.15;;;25.60;99.90;;;;;;5073410;28;20037;-73
2022/06/16 07:17:51;;;;;;;10.73;5.45;;;25.40;99.90;;;;;;5072994;28;20066;-72
2022/06/16 07:20:20;;;;;;;9.52;4.00;;;25.10;1.00;;;;;;5072978;28;20036;-72
2022/06/16 07:22:48;;;;;;;7.63;4.10;;;25.40;99.90;;;;;;5089350;28;20051;-73
2022/06/16 07:25:16;;;;;;;7.40;4.72;;;25.40;1.00;;;;;;5073309;28;20128;-71
2022/06/16 07:27:44;;;;;;;8.95;5.05;;;25.80;1.00;;;;;;5074044;28;20130;-74
2022/06/16 07:30:15;;;;;;;9.15;4.28;;;25.80;99.90;;;;;;5073485;28;20127;-73
2022/06/16 07:32:43;;;;;;;9.82;4.82;;;25.90;99.90;;;;;;5073485;28;20036;-74
2022/06/16 07:35:12;;;;;;;12.00;5.95;;;26.00;99.90;;;;;;5073775;28;20051;-74
2022/06/16 07:37:41;;;;;;;6.18;4.03;;;26.30;99.90;;;;;;5073983;28;20044;-73
2022/06/16 07:40:10;;;;;;;7.80;4.60;;;26.10;99.90;;;;;;5074908;28;20037;-74
2022/06/16 07:42:37;;;;;;;11.05;8.23;;;26.10;1.00;;;;;;5073440;28;20032;-74
2022/06/16 07:45:06;;;;;;;8.75;5.70;;;26.30;1.00;;;;;;5073780;28;20492;-74
2022/06/16 07:47:33;;;;;;;7.25;4.93;;;26.30;1.00;;;;;;5073570;28;20045;-73
2022/06/16 07:50:02;;;;;;;12.32;6.45;;;26.40;1.00;;;;;;5086640;28;20101;-73
2022/06/16 07:52:29;;;;;;;11.40;5.60;;;26.70;1.00;;;;;;5093525;28;20044;-74
2022/06/16 07:54:57;;;;;;;11.38;5.32;;;26.80;99.90;;;;;;5094156;28;20067;-74
2022/06/16 07:57:26;;;;;;;9.35;5.97;;;26.80;1.00;;;;;;5093731;28;20086;-73
2022/06/16 07:59:53;;;;;;;10.85;4.72;;;26.90;1.00;;;;;;5075417;28;20044;-73
2022/06/16 08:02:21;;;;;;;9.88;4.63;;;26.90;99.90;;;;;;5096706;28;20062;-73
2022/06/16 08:04:49;;;;;;;9.23;6.20;;;27.00;99.90;;;;;;5100019;28;20044;-72
2022/06/16 08:07:16;;;;;;;9.13;5.60;;;27.00;1.00;;;;;;5093155;28;20036;-73
2022/06/16 08:09:44;;;;;;;10.80;6.07;;;27.10;1.00;;;;;;5094493;28;20054;-73
2022/06/16 08:12:14;;;;;;;9.98;5.43;;;27.20;99.90;;;;;;5087656;28;20486;-75
2022/06/16 08:14:43;;;;;;;10.88;5.10;;;27.30;1.00;;;;;;5099044;28;20043;-74
2022/06/16 08:17:13;;;;;;;9.35;5.38;;;27.40;1.00;;;;;;5099360;28;20093;-75
2022/06/16 08:19:40;;;;;;;10.02;6.45;;;27.30;1.00;;;;;;5099238;28;20066;-74
2022/06/16 08:22:08;;;;;;;9.40;5.65;;;27.10;1.00;;;;;;5096916;28;20573;-74
2022/06/16 08:24:35;;;;;;;8.25;5.20;;;27.00;1.00;;;;;;5097146;28;20048;-73
2022/06/16 08:27:03;;;;;;;8.45;4.40;;;26.90;1.00;;;;;;5098068;28;20059;-73
2022/06/16 08:29:33;;;;;;;8.15;5.70;;;26.90;1.00;;;;;;5098954;28;20044;-73
2022/06/16 08:32:01;;;;;;;7.35;4.22;;;27.00;99.90;;;;;;5098532;28;20032;-73
2022/06/16 08:34:28;;;;;;;9.05;5.75;;;27.00;99.90;;;;;;5099047;28;20044;-74
2022/06/16 08:36:55;;;;;;;8.50;6.03;;;27.20;39.50;;;;;;5105088;28;20055;-72
2022/06/16 08:39:26;;;;;;;6.70;4.60;;;27.30;11.80;;;;;;5112090;28;20059;-74
2022/06/16 08:42:02;;;;;;;9.02;4.78;;;27.00;98.90;;;;;;5114125;28;20044;-73
2022/06/16 08:44:39;;;;;;;9.65;5.53;;;27.10;1.00;;;;;;5109405;28;20079;-74
2022/06/16 08:47:16;;;;;;;8.95;4.63;;;26.90;99.90;;;;;;5099211;28;20127;-72
2022/06/16 08:49:51;;;;;;;10.85;4.38;;;26.80;1.00;;;;;;5108599;22;20037;-75
2022/06/16 08:52:24;;;;;;;8.80;4.70;;;27.00;1.00;;;;;;5057888;28;20073;-77
2022/06/16 08:55:05;;;;;;;6.70;4.03;;;27.40;50.40;;;;;;5056718;28;20049;-77
2022/06/16 08:57:43;;;;;;;7.97;4.93;;;27.40;1.00;;;;;;5056258;28;20492;-75
2022/06/16 09:00:15;;;;;;;6.10;4.40;;;27.40;1.00;;;;;;5055709;28;20047;-76
2022/06/16 09:02:47;;;;;;;6.28;4.05;;;27.40;1.00;;;;;;5055874;28;20043;-77
2022/06/16 09:05:29;;;;;;;6.20;4.05;;;27.20;1.00;;;;;;5056280;28;20049;-76
2022/06/16 09:08:09;;;;;;;10.20;3.65;;;27.30;1.00;;;;;;5054629;28;20052;-75
2022/06/16 09:10:47;;;;;;;10.88;6.57;;;27.60;1.00;;;;;;5055784;28;20187;-76
2022/06/16 09:13:49;;;;;;;6.07;3.90;;;27.70;1.00;;;;;;5038156;28;20052;-75
2022/06/16 09:16:29;;;;;;;9.13;3.53;;;27.60;1.00;;;;;;5049014;28;20048;-76
2022/06/16 09:19:21;;;;;;;5.40;4.05;;;27.70;1.00;;;;;;5055740;28;20065;-76
2022/06/16 09:21:58;;;;;;;7.32;3.60;;;27.80;99.90;;;;;;5058351;28;20041;-75
2022/06/16 09:24:41;;;;;;;9.43;3.25;;;28.00;73.70;;;;;;5056231;28;20569;-76
2022/06/16 09:27:16;;;;;;;6.70;2.90;;;28.10;1.00;;;;;;5057550;28;20049;-76
2022/06/16 09:29:52;;;;;;;3.85;2.70;;;28.30;1.00;;;;;;5056005;28;20116;-77
2022/06/16 09:32:31;;;;;;;5.03;2.75;;;28.00;1.00;;;;;;5037817;28;20079;-77
2022/06/16 09:35:05;;;;;;;7.55;3.40;;;28.00;1.00;;;;;;5056488;28;20431;-76
2022/06/16 09:37:39;;;;;;;5.03;2.63;;;28.00;1.00;;;;;;5037421;28;20052;-76
2022/06/16 09:40:15;;;;;;;5.22;2.45;;;28.00;1.00;;;;;;5055625;28;20087;-77
2022/06/16 09:42:45;;;;;;;5.97;3.47;;;27.80;1.00;;;;;;5054157;28;20083;-76
2022/06/16 09:45:19;;;;;;;4.32;2.42;;;28.00;99.90;;;;;;5054860;28;20090;-76
2022/06/16 09:48:07;;;;;;;3.85;2.67;;;27.80;1.00;;;;;;5054865;28;20525;-75
2022/06/16 09:50:43;;;;;;;6.00;2.78;;;27.80;1.00;;;;;;5056003;28;20083;-77
2022/06/16 09:53:14;;;;;;;;;;;28.10;1.00;;;;;;5056653;28;20167;-77
2022/06/16 09:55:48;;;;;;;4.60;3.15;;;28.00;1.00;;;;;;5054926;28;20007;-76
2022/06/16 09:58:23;;;;;;;5.35;4.25;;;27.70;1.00;;;;;;5056156;28;20052;-77
2022/06/16 10:00:53;;;;;;;3.83;2.22;;;27.90;1.00;;;;;;5050353;28;20045;-78
2022/06/16 10:03:32;;;;;;;5.72;3.53;;;28.10;1.00;;;;;;5055865;28;20033;-77
2022/06/16 10:06:20;;;;;;;6.88;4.07;;;28.20;1.00;;;;;;5024563;28;20055;-77
2022/06/16 10:08:58;;;;;;;6.03;3.30;;;28.30;99.90;;;;;;5045971;28;20484;-77
2022/06/16 10:11:40;;;;;;;3.95;2.50;;;28.50;1.00;;;;;;5055755;28;20094;-77
2022/06/16 10:14:15;;;;;;;5.75;2.70;;;28.50;1.00;;;;;;5052969;28;20044;-77
2022/06/16 10:16:51;;;;;;;3.92;2.65;;;28.20;1.00;;;;;;5045934;28;20057;-77
2022/06/16 10:19:20;;;;;;;;;;;28.10;24.50;;;;;;5038279;28;20099;-76
2022/06/16 10:21:48;;;;;;;6.15;3.45;;;28.20;99.90;;;;;;5054750;28;19924;-76
2022/06/16 10:24:19;;;;;;;5.15;3.13;;;28.40;99.90;;;;;;5053931;28;20104;-76
2022/06/16 10:26:46;;;;;;;6.82;2.92;;;28.50;99.90;;;;;;5054350;28;20443;-77
2022/06/16 10:29:24;;;;;;;5.35;2.60;;;28.50;99.90;;;;;;5052314;28;20045;-77
2022/06/16 10:31:53;;;;;;;15.85;4.03;;;28.30;99.90;;;;;;5052303;28;20079;-76
2022/06/16 10:34:29;;;;;;;8.13;3.08;;;28.30;99.90;;;;;;5054062;28;20044;-75
2022/06/16 10:37:02;;;;;;;6.47;3.60;;;28.30;77.50;;;;;;5045683;28;20048;-76
2022/06/16 10:39:38;;;;;;;7.80;3.78;;;28.50;6.00;;;;;;5041059;28;20048;-77
2022/06/16 10:42:15;;;;;;;10.93;8.10;;;28.70;1.00;;;;;;5055593;28;20091;-76
2022/06/16 10:44:49;;;;;;;6.97;4.80;;;28.60;75.70;;;;;;5056024;28;20044;-78
2022/06/16 10:47:21;;;;;;;4.88;3.10;;;28.40;99.90;;;;;;5059306;28;20056;-77
2022/06/16 10:49:52;;;;;;;4.13;2.50;;;28.70;99.90;;;;;;5041988;28;20075;-78
2022/06/16 10:52:32;;;;;;;5.65;2.63;;;28.60;1.00;;;;;;5035960;28;20083;-78
2022/06/16 10:55:05;;;;;;;5.13;3.00;;;28.50;99.90;;;;;;5052855;28;20044;-77
2022/06/16 10:57:40;;;;;;;4.18;2.50;;;28.60;99.90;;;;;;5050555;28;20048;-76
2022/06/16 11:00:13;;;;;;;4.93;2.53;;;28.70;99.90;;;;;;5044429;28;20057;-76
2022/06/16 11:02:57;;;;;;;5.40;3.33;;;28.80;1.00;;;;;;5071575;28;20043;-78
2022/06/16 11:05:28;;;;;;;5.35;2.60;;;28.80;99.90;;;;;;5048456;28;20050;-77
2022/06/16 11:08:06;;;;;;;6.85;5.18;;;28.70;1.00;;;;;;5054290;28;20049;-76
2022/06/16 11:10:36;;;;;;;4.38;2.75;;;28.50;1.00;;;;;;5056249;28;20049;-77
2022/06/16 11:13:05;;;;;;;5.78;3.42;;;28.40;1.00;;;;;;5054925;28;20068;-76
2022/06/16 11:15:35;;;;;;;4.53;2.45;;;28.30;1.00;;;;;;5037973;28;20064;-77
2022/06/16 11:18:07;;;;;;;4.93;2.58;;;28.40;1.00;;;;;;5055120;28;20094;-77
2022/06/16 11:20:39;;;;;;;7.18;2.80;;;28.30;1.00;;;;;;5036107;28;20411;-77
2022/06/16 11:23:25;;;;;;;5.70;2.70;;;28.20;1.00;;;;;;5054054;28;20077;-77
2022/06/16 11:25:59;;;;;;;5.03;2.78;;;28.20;99.90;;;;;;5056233;28;20499;-78
2022/06/16 11:28:28;;;;;;;4.93;3.33;;;28.30;99.90;;;;;;5053904;28;20492;-78
2022/06/16 11:30:59;;;;;;;7.97;3.85;;;28.50;1.00;;;;;;5038302;28;20416;-77
2022/06/16 11:36:31;;;;;;;6.22;4.75;;;28.90;1.00;;;;;;5054911;28;20128;-77
2022/06/16 11:39:07;;;;;;;6.18;3.70;;;29.10;99.90;;;;;;5053917;28;20075;-77
2022/06/16 11:41:35;;;;;;;13.18;9.25;;;29.00;99.90;;;;;;5053748;28;20045;-79
2022/06/16 11:44:18;;;;;;;7.10;3.58;;;29.00;1.00;;;;;;5039054;28;20043;-76
2022/06/16 11:46:54;;;;;;;4.32;2.72;;;29.00;1.00;;;;;;5038789;28;20079;-76
2022/06/16 11:49:35;;;;;;;5.65;2.75;;;29.00;99.90;;;;;;5056809;28;20102;-77
2022/06/16 11:52:14;;;;;;;5.80;2.88;;;28.90;99.90;;;;;;5056804;28;20033;-76
2022/06/16 11:54:54;;;;;;;3.38;2.60;;;28.90;99.90;;;;;;5058615;28;20095;-78
2022/06/16 11:57:29;;;;;;;6.18;3.72;;;28.80;1.00;;;;;;5038433;28;20114;-76
2022/06/16 12:00:20;;;;;;;4.45;2.88;;;28.80;1.00;;;;;;5056586;28;20077;-76
2022/06/16 12:03:22;;;;;;;4.00;2.80;;;28.60;99.90;;;;;;5058115;28;20049;-75
2022/06/16 12:06:04;;;;;;;4.82;2.80;;;28.50;70.00;;;;;;5055081;28;20041;-75
2022/06/16 12:08:46;;;;;;;6.82;4.07;;;28.50;1.00;;;;;;5056960;28;20037;-77
2022/06/16 12:11:23;;;;;;;8.13;3.58;;;28.60;1.00;;;;;;5056700;28;20094;-75
2022/06/16 12:13:57;;;;;;;5.70;3.60;;;28.60;99.90;;;;;;5038161;28;20088;-76
2022/06/16 12:16:32;;;;;;;6.05;3.60;;;28.70;1.00;;;;;;5057161;28;20566;-77
2022/06/16 12:19:08;;;;;;;5.03;2.80;;;28.90;99.90;;;;;;5056482;28;20041;-75
2022/06/16 12:21:39;;;;;;;8.75;3.75;;;28.90;1.00;;;;;;5057599;28;20044;-77
2022/06/16 12:24:19;;;;;;;3.88;2.53;;;28.90;1.00;;;;;;5038251;28;20044;-77
2022/06/16 12:26:53;;;;;;;5.10;2.70;;;28.70;99.90;;;;;;5057900;28;20388;-77
2022/06/16 12:29:28;;;;;;;5.78;2.50;;;28.30;1.00;;;;;;5056804;28;20048;-76
2022/06/16 12:32:03;;;;;;;4.32;2.88;;;28.40;1.00;;;;;;5056361;28;20500;-77
2022/06/16 12:34:39;;;;;;;4.45;2.80;;;28.40;99.90;;;;;;5055900;28;20450;-76
2022/06/16 12:37:10;;;;;;;4.80;3.17;;;28.50;99.90;;;;;;5056703;28;20545;-80
2022/06/16 12:39:45;;;;;;;6.80;2.55;;;28.70;1.00;;;;;;5055882;28;20056;-77
2022/06/16 12:42:17;;;;;;;7.28;3.25;;;28.60;1.00;;;;;;5037771;28;20431;-77
2022/06/16 12:44:50;;;;;;;11.38;8.30;;;28.60;1.00;;;;;;5056174;28;20045;-77
2022/06/16 12:47:22;;;;;;;6.10;3.78;;;28.70;1.00;;;;;;5056595;28;20385;-78
2022/06/16 12:49:56;;;;;;;9.00;7.07;;;28.90;1.00;;;;;;5055750;28;20396;-77
2022/06/16 12:52:27;;;;;;;7.15;2.60;;;28.90;1.00;;;;;;5055156;28;20039;-78
2022/06/16 12:55:01;;;;;;;3.40;2.50;;;28.60;99.90;;;;;;5058741;28;20060;-77
2022/06/16 12:57:33;;;;;;;7.10;3.10;;;28.50;99.90;;;;;;5056196;28;20064;-77
2022/06/16 13:00:04;;;;;;;5.20;2.60;;;28.60;1.00;;;;;;5055820;28;20071;-76
2022/06/16 13:02:37;;;;;;;5.72;2.58;;;28.60;1.00;;;;;;5046800;28;20112;-77
2022/06/16 13:05:09;;;;;;;5.85;2.95;;;28.60;1.00;;;;;;5033614;28;20463;-76
2022/06/16 13:07:44;;;;;;;4.45;2.40;;;28.60;1.00;;;;;;5037634;28;20045;-77
2022/06/16 13:10:14;;;;;;;4.00;2.50;;;28.50;1.00;;;;;;5037612;28;20057;-76
2022/06/16 13:12:45;;;;;;;3.45;2.38;;;28.40;99.90;;;;;;5039365;28;20105;-76
2022/06/16 13:15:17;;;;;;;5.15;2.67;;;28.50;1.00;;;;;;5059719;28;20041;-76
2022/06/16 13:17:52;;;;;;;5.28;3.00;;;28.70;99.90;;;;;;5062155;28;20063;-76
2022/06/16 13:20:21;;;;;;;7.35;3.67;;;28.70;1.00;;;;;;5055419;28;20075;-76
2022/06/16 13:22:56;;;;;;;4.63;3.00;;;28.80;99.90;;;;;;5054685;28;20044;-77
2022/06/16 13:25:49;;;;;;;15.00;3.30;;;28.90;1.00;;;;;;5054152;28;20553;-76
2022/06/16 13:28:25;;;;;;;5.13;3.28;;;28.90;99.90;;;;;;5036948;28;20044;-77
2022/06/16 13:31:11;;;;;;;3.88;2.85;;;28.90;99.90;;;;;;5042780;28;20038;-75
2022/06/16 13:33:49;;;;;;;;;;;28.90;1.00;;;;;;5037215;28;20103;-76
2022/06/16 13:36:53;;;;;;;5.55;3.95;;;28.90;99.90;;;;;;5054247;28;19970;-76
2022/06/16 13:39:59;;;;;;;5.15;2.60;;;28.90;1.00;;;;;;5054815;28;20111;-76
2022/06/16 13:45:25;;;;;;;;;;;28.70;1.00;;;;;;5135172;27;20387;-75
2022/06/16 13:48:13;;;;;;;13.70;4.13;;;28.60;1.00;;;;;;5133257;28;20358;-75